sensor_id;sensor_type;location;lat;lon;timestamp;pressure;altitude;pressure_sealevel;temperature;humidity
70684;BME280;58263;48.146;11.440;2024-03-02T00:00:06;94654.94;;;6.13;98.66
70684;BME280;58263;48.146;11.440;2024-03-02T00:02:43;94645.09;;;6.13;98.62
70684;BME280;58263;48.146;11.440;2024-03-02T00:05:14;94647.19;;;6.11;98.87
70684;BME280;58263;48.146;11.440;2024-03-02T00:07:44;94650.31;;;6.20;98.23
70684;BME280;58263;48.146;11.440;2024-03-02T00:10:13;94637.94;;;6.25;97.98
70684;BME280;58263;48.146;11.440;2024-03-02T00:12:39;94638.16;;;6.24;97.96
70684;BME280;58263;48.146;11.440;2024-03-02T00:15:07;94639.31;;;6.28;97.77
70684;BME280;58263;48.146;11.440;2024-03-02T00:17:52;94636.44;;;6.30;97.49
70684;BME280;58263;48.146;11.440;2024-03-02T00:20:21;94633.31;;;6.33;97.32
70684;BME280;58263;48.146;11.440;2024-03-02T00:22:47;94629.03;;;6.32;97.33
70684;BME280;58263;48.146;11.440;2024-03-02T00:25:12;94630.66;;;6.21;97.20
70684;BME280;58263;48.146;11.440;2024-03-02T00:27:37;94626.00;;;6.28;96.13
70684;BME280;58263;48.146;11.440;2024-03-02T00:30:34;94624.53;;;6.20;96.59
70684;BME280;58263;48.146;11.440;2024-03-02T00:33:01;94623.22;;;6.23;96.47
70684;BME280;58263;48.146;11.440;2024-03-02T00:35:26;94616.41;;;6.27;96.08
70684;BME280;58263;48.146;11.440;2024-03-02T00:37:52;94614.09;;;6.31;96.33
70684;BME280;58263;48.146;11.440;2024-03-02T00:40:17;94605.41;;;6.35;95.76
70684;BME280;58263;48.146;11.440;2024-03-02T00:42:44;94606.22;;;6.36;95.61
70684;BME280;58263;48.146;11.440;2024-03-02T00:45:09;94606.22;;;6.36;95.70
70684;BME280;58263;48.146;11.440;2024-03-02T00:47:38;94612.81;;;6.33;95.90
70684;BME280;58263;48.146;11.440;2024-03-02T00:50:05;94614.56;;;6.28;96.37
70684;BME280;58263;48.146;11.440;2024-03-02T00:52:30;94625.88;;;6.23;96.06
70684;BME280;58263;48.146;11.440;2024-03-02T00:54:58;94621.25;;;6.06;96.66
70684;BME280;58263;48.146;11.440;2024-03-02T00:57:24;94628.59;;;5.92;97.42
70684;BME280;58263;48.146;11.440;2024-03-02T00:59:51;94628.91;;;5.72;98.55
70684;BME280;58263;48.146;11.440;2024-03-02T01:02:16;94627.91;;;5.85;98.03
70684;BME280;58263;48.146;11.440;2024-03-02T01:04:41;94627.69;;;5.87;98.03
70684;BME280;58263;48.146;11.440;2024-03-02T01:07:06;94629.75;;;5.85;98.31
70684;BME280;58263;48.146;11.440;2024-03-02T01:09:32;94623.66;;;5.96;97.66
70684;BME280;58263;48.146;11.440;2024-03-02T01:11:57;94625.53;;;6.07;97.40
70684;BME280;58263;48.146;11.440;2024-03-02T01:14:22;94615.50;;;6.09;97.00
70684;BME280;58263;48.146;11.440;2024-03-02T01:16:48;94622.88;;;6.07;97.01
70684;BME280;58263;48.146;11.440;2024-03-02T01:19:14;94621.84;;;6.08;96.30
70684;BME280;58263;48.146;11.440;2024-03-02T01:21:40;94617.91;;;6.11;96.59
70684;BME280;58263;48.146;11.440;2024-03-02T01:24:05;94621.38;;;6.12;96.59
70684;BME280;58263;48.146;11.440;2024-03-02T01:26:30;94620.09;;;6.02;96.48
70684;BME280;58263;48.146;11.440;2024-03-02T01:28:55;94620.69;;;6.04;96.71
70684;BME280;58263;48.146;11.440;2024-03-02T01:31:21;94616.69;;;5.95;97.26
70684;BME280;58263;48.146;11.440;2024-03-02T01:33:46;94625.88;;;5.99;97.02
70684;BME280;58263;48.146;11.440;2024-03-02T01:36:11;94624.09;;;5.81;98.48
70684;BME280;58263;48.146;11.440;2024-03-02T01:38:37;94625.47;;;5.96;98.02
70684;BME280;58263;48.146;11.440;2024-03-02T01:41:02;94621.25;;;6.06;96.81
70684;BME280;58263;48.146;11.440;2024-03-02T01:43:27;94616.53;;;6.08;96.51
70684;BME280;58263;48.146;11.440;2024-03-02T01:45:53;94618.16;;;6.09;96.51
70684;BME280;58263;48.146;11.440;2024-03-02T01:48:18;94612.81;;;6.09;96.70
70684;BME280;58263;48.146;11.440;2024-03-02T01:50:44;94616.06;;;6.12;96.43
70684;BME280;58263;48.146;11.440;2024-03-02T01:53:09;94610.59;;;6.06;96.29
70684;BME280;58263;48.146;11.440;2024-03-02T01:55:35;94611.19;;;6.08;96.21
70684;BME280;58263;48.146;11.440;2024-03-02T01:58:00;94608.31;;;6.10;96.24
70684;BME280;58263;48.146;11.440;2024-03-02T02:00:26;94605.41;;;6.12;96.22
70684;BME280;58263;48.146;11.440;2024-03-02T02:02:52;94606.00;;;6.14;96.13
70684;BME280;58263;48.146;11.440;2024-03-02T02:05:17;94605.41;;;6.12;96.18
70684;BME280;58263;48.146;11.440;2024-03-02T02:07:43;94599.03;;;6.13;96.47
70684;BME280;58263;48.146;11.440;2024-03-02T02:10:09;94595.91;;;6.16;95.76
70684;BME280;58263;48.146;11.440;2024-03-02T02:12:36;94593.84;;;6.18;95.92
70684;BME280;58263;48.146;11.440;2024-03-02T02:15:01;94595.44;;;6.19;95.70
70684;BME280;58263;48.146;11.440;2024-03-02T02:17:27;94592.22;;;6.17;95.60
70684;BME280;58263;48.146;11.440;2024-03-02T02:19:52;94589.69;;;6.22;95.57
70684;BME280;58263;48.146;11.440;2024-03-02T02:22:17;94583.63;;;6.15;96.22
70684;BME280;58263;48.146;11.440;2024-03-02T02:24:43;94597.19;;;6.13;95.85
70684;BME280;58263;48.146;11.440;2024-03-02T02:27:09;94596.28;;;6.19;95.44
70684;BME280;58263;48.146;11.440;2024-03-02T02:29:35;94593.84;;;6.18;95.71
70684;BME280;58263;48.146;11.440;2024-03-02T02:32:01;94592.88;;;6.12;95.88
70684;BME280;58263;48.146;11.440;2024-03-02T02:34:26;94587.38;;;6.14;95.97
70684;BME280;58263;48.146;11.440;2024-03-02T02:36:51;94591.53;;;6.09;95.79
70684;BME280;58263;48.146;11.440;2024-03-02T02:39:18;94593.50;;;6.14;95.86
70684;BME280;58263;48.146;11.440;2024-03-02T02:41:45;94598.81;;;6.14;95.87
70684;BME280;58263;48.146;11.440;2024-03-02T02:44:10;94601.25;;;6.16;95.77
70684;BME280;58263;48.146;11.440;2024-03-02T02:46:38;94604.25;;;6.07;96.30
70684;BME280;58263;48.146;11.440;2024-03-02T02:49:03;94597.28;;;6.06;95.77
70684;BME280;58263;48.146;11.440;2024-03-02T02:51:29;94595.13;;;6.15;95.95
70684;BME280;58263;48.146;11.440;2024-03-02T02:53:54;94597.19;;;6.13;95.68
70684;BME280;58263;48.146;11.440;2024-03-02T02:56:19;94600.44;;;6.15;95.87
70684;BME280;58263;48.146;11.440;2024-03-02T02:58:44;94598.44;;;6.11;96.32
70684;BME280;58263;48.146;11.440;2024-03-02T03:01:10;94605.41;;;6.12;96.29
70684;BME280;58263;48.146;11.440;2024-03-02T03:03:35;94599.03;;;6.13;96.23
70684;BME280;58263;48.146;11.440;2024-03-02T03:06:01;94592.88;;;6.12;96.57
70684;BME280;58263;48.146;11.440;2024-03-02T03:08:27;94595.91;;;6.16;96.08
70684;BME280;58263;48.146;11.440;2024-03-02T03:10:52;94588.75;;;6.16;95.95
70684;BME280;58263;48.146;11.440;2024-03-02T03:13:17;94592.44;;;6.15;96.18
70684;BME280;58263;48.146;11.440;2024-03-02T03:15:43;94585.03;;;6.17;95.82
70684;BME280;58263;48.146;11.440;2024-03-02T03:18:08;94586.88;;;6.17;95.96
70684;BME280;58263;48.146;11.440;2024-03-02T03:20:35;94585.13;;;6.11;96.67
70684;BME280;58263;48.146;11.440;2024-03-02T03:23:00;94585.84;;;6.18;96.21
70684;BME280;58263;48.146;11.440;2024-03-02T03:25:26;94587.69;;;6.17;95.97
70684;BME280;58263;48.146;11.440;2024-03-02T03:27:51;94586.88;;;6.17;96.13
70684;BME280;58263;48.146;11.440;2024-03-02T03:30:19;94582.13;;;6.19;96.26
70684;BME280;58263;48.146;11.440;2024-03-02T03:32:44;94584.91;;;6.24;95.78
70684;BME280;58263;48.146;11.440;2024-03-02T03:35:10;94584.34;;;6.22;95.73
70684;BME280;58263;48.146;11.440;2024-03-02T03:37:35;94587.09;;;6.27;95.23
70684;BME280;58263;48.146;11.440;2024-03-02T03:40:02;94583.75;;;6.20;95.73
70684;BME280;58263;48.146;11.440;2024-03-02T03:42:28;94597.19;;;6.25;95.98
70684;BME280;58263;48.146;11.440;2024-03-02T03:44:53;94593.84;;;6.18;95.54
70684;BME280;58263;48.146;11.440;2024-03-02T03:47:18;94596.84;;;6.21;95.98
70684;BME280;58263;48.146;11.440;2024-03-02T03:49:45;94589.19;;;6.25;95.32
70684;BME280;58263;48.146;11.440;2024-03-02T03:52:10;94593.13;;;6.22;95.28
70684;BME280;58263;48.146;11.440;2024-03-02T03:54:35;94595.13;;;6.15;95.93
70684;BME280;58263;48.146;11.440;2024-03-02T03:57:02;94592.66;;;6.25;95.35
70684;BME280;58263;48.146;11.440;2024-03-02T03:59:27;94594.06;;;6.28;95.29
70684;BME280;58263;48.146;11.440;2024-03-02T04:01:53;94605.19;;;6.25;95.45
70684;BME280;58263;48.146;11.440;2024-03-02T04:04:18;94597.75;;;6.27;95.34
70684;BME280;58263;48.146;11.440;2024-03-02T04:06:43;94601.47;;;6.26;95.41
70684;BME280;58263;48.146;11.440;2024-03-02T04:09:09;94617.47;;;6.26;95.40
70684;BME280;58263;48.146;11.440;2024-03-02T04:11:34;94610.63;;;6.18;95.56
70684;BME280;58263;48.146;11.440;2024-03-02T04:13:59;94613.03;;;6.20;95.54
70684;BME280;58263;48.146;11.440;2024-03-02T04:16:25;94619.06;;;6.15;95.90
70684;BME280;58263;48.146;11.440;2024-03-02T04:18:50;94624.16;;;6.17;96.13
70684;BME280;58263;48.146;11.440;2024-03-02T04:21:15;94627.53;;;6.24;95.76
70684;BME280;58263;48.146;11.440;2024-03-02T04:23:41;94628.22;;;6.19;96.08
70684;BME280;58263;48.146;11.440;2024-03-02T04:26:06;94624.97;;;6.05;96.64
70684;BME280;58263;48.146;11.440;2024-03-02T04:28:31;94629.22;;;5.95;97.70
70684;BME280;58263;48.146;11.440;2024-03-02T04:30:56;94629.56;;;5.98;97.89
70684;BME280;58263;48.146;11.440;2024-03-02T04:33:21;94628.78;;;6.09;96.98
70684;BME280;58263;48.146;11.440;2024-03-02T04:35:47;94630.28;;;6.17;96.31
70684;BME280;58263;48.146;11.440;2024-03-02T04:38:12;94628.56;;;6.11;96.69
70684;BME280;58263;48.146;11.440;2024-03-02T04:40:37;94632.38;;;6.15;96.27
70684;BME280;58263;48.146;11.440;2024-03-02T04:43:03;94638.50;;;6.16;95.92
70684;BME280;58263;48.146;11.440;2024-03-02T04:45:28;94640.00;;;6.12;96.64
70684;BME280;58263;48.146;11.440;2024-03-02T04:47:54;94641.31;;;6.21;96.17
70684;BME280;58263;48.146;11.440;2024-03-02T04:50:19;94637.13;;;6.13;95.98
70684;BME280;58263;48.146;11.440;2024-03-02T04:52:44;94641.41;;;6.14;95.75
70684;BME280;58263;48.146;11.440;2024-03-02T04:55:09;94638.88;;;5.89;96.81
70684;BME280;58263;48.146;11.440;2024-03-02T04:57:41;94638.38;;;5.99;97.41
70684;BME280;58263;48.146;11.440;2024-03-02T05:00:07;94650.53;;;6.06;96.71
70684;BME280;58263;48.146;11.440;2024-03-02T05:02:34;94645.16;;;5.83;98.07
70684;BME280;58263;48.146;11.440;2024-03-02T05:04:59;94654.38;;;5.80;98.96
70684;BME280;58263;48.146;11.440;2024-03-02T05:07:24;94655.31;;;5.86;98.04
70684;BME280;58263;48.146;11.440;2024-03-02T05:09:49;94659.94;;;5.79;98.70
70684;BME280;58263;48.146;11.440;2024-03-02T05:12:15;94657.22;;;5.97;97.67
70684;BME280;58263;48.146;11.440;2024-03-02T05:14:58;94653.53;;;5.98;97.86
70684;BME280;58263;48.146;11.440;2024-03-02T05:17:24;94662.00;;;6.07;97.13
70684;BME280;58263;48.146;11.440;2024-03-02T05:19:49;94663.28;;;6.04;96.93
70684;BME280;58263;48.146;11.440;2024-03-02T05:22:14;94656.22;;;6.10;96.49
70684;BME280;58263;48.146;11.440;2024-03-02T05:24:39;94657.34;;;6.02;96.78
70684;BME280;58263;48.146;11.440;2024-03-02T05:27:05;94664.44;;;6.08;97.07
70684;BME280;58263;48.146;11.440;2024-03-02T05:29:31;94662.28;;;5.87;97.94
70684;BME280;58263;48.146;11.440;2024-03-02T05:31:56;94661.09;;;5.83;98.61
70684;BME280;58263;48.146;11.440;2024-03-02T05:34:22;94661.81;;;5.90;97.80
70684;BME280;58263;48.146;11.440;2024-03-02T05:36:47;94651.91;;;5.97;97.40
70684;BME280;58263;48.146;11.440;2024-03-02T05:39:12;94648.56;;;6.02;96.93
70684;BME280;58263;48.146;11.440;2024-03-02T05:41:37;94655.63;;;6.08;96.45
70684;BME280;58263;48.146;11.440;2024-03-02T05:44:03;94662.75;;;5.84;97.45
70684;BME280;58263;48.146;11.440;2024-03-02T05:46:29;94664.47;;;5.78;98.74
70684;BME280;58263;48.146;11.440;2024-03-02T05:48:54;94673.47;;;5.77;99.02
70684;BME280;58263;48.146;11.440;2024-03-02T05:51:19;94672.53;;;5.71;99.37
70684;BME280;58263;48.146;11.440;2024-03-02T05:53:44;94664.22;;;5.80;98.97
70684;BME280;58263;48.146;11.440;2024-03-02T05:56:10;94669.22;;;5.88;98.47
70684;BME280;58263;48.146;11.440;2024-03-02T05:58:35;94663.00;;;5.64;99.78
70684;BME280;58263;48.146;11.440;2024-03-02T06:01:19;94669.91;;;5.53;100.00
70684;BME280;58263;48.146;11.440;2024-03-02T06:03:44;94669.03;;;5.71;99.66
70684;BME280;58263;48.146;11.440;2024-03-02T06:06:10;94670.31;;;5.68;99.22
70684;BME280;58263;48.146;11.440;2024-03-02T06:08:35;94665.63;;;5.82;98.49
70684;BME280;58263;48.146;11.440;2024-03-02T06:11:01;94656.13;;;5.74;97.66
70684;BME280;58263;48.146;11.440;2024-03-02T06:13:26;94661.69;;;5.85;97.30
70684;BME280;58263;48.146;11.440;2024-03-02T06:15:52;94663.22;;;5.92;97.17
70684;BME280;58263;48.146;11.440;2024-03-02T06:18:17;94658.84;;;5.98;96.94
70684;BME280;58263;48.146;11.440;2024-03-02T06:20:42;94656.19;;;5.98;97.12
70684;BME280;58263;48.146;11.440;2024-03-02T06:23:07;94657.03;;;5.99;96.67
70684;BME280;58263;48.146;11.440;2024-03-02T06:25:33;94665.34;;;6.02;96.12
70684;BME280;58263;48.146;11.440;2024-03-02T06:27:58;94661.88;;;6.02;96.06
70684;BME280;58263;48.146;11.440;2024-03-02T06:30:24;94667.56;;;6.05;96.05
70684;BME280;58263;48.146;11.440;2024-03-02T06:32:49;94662.00;;;5.76;97.25
70684;BME280;58263;48.146;11.440;2024-03-02T06:35:14;94669.09;;;5.83;96.99
70684;BME280;58263;48.146;11.440;2024-03-02T06:37:40;94675.41;;;6.00;95.81
70684;BME280;58263;48.146;11.440;2024-03-02T06:40:06;94673.78;;;5.99;95.55
70684;BME280;58263;48.146;11.440;2024-03-02T06:42:33;94660.00;;;6.02;95.33
70684;BME280;58263;48.146;11.440;2024-03-02T06:44:59;94653.88;;;6.02;95.31
70684;BME280;58263;48.146;11.440;2024-03-02T06:47:24;94648.56;;;6.02;95.47
70684;BME280;58263;48.146;11.440;2024-03-02T06:49:49;94656.31;;;6.03;95.07
70684;BME280;58263;48.146;11.440;2024-03-02T06:52:14;94660.38;;;6.06;94.83
70684;BME280;58263;48.146;11.440;2024-03-02T06:54:39;94659.56;;;6.05;94.45
70684;BME280;58263;48.146;11.440;2024-03-02T06:57:05;94656.31;;;6.03;93.94
70684;BME280;58263;48.146;11.440;2024-03-02T06:59:30;94663.28;;;6.04;93.89
70684;BME280;58263;48.146;11.440;2024-03-02T07:01:55;94662.81;;;6.07;94.13
70684;BME280;58263;48.146;11.440;2024-03-02T07:04:21;94655.06;;;6.06;93.90
70684;BME280;58263;48.146;11.440;2024-03-02T07:06:47;94654.25;;;6.05;93.75
70684;BME280;58263;48.146;11.440;2024-03-02T07:09:12;94669.63;;;6.03;93.75
70684;BME280;58263;48.146;11.440;2024-03-02T07:11:37;94660.72;;;5.98;94.34
70684;BME280;58263;48.146;11.440;2024-03-02T07:14:02;94663.28;;;6.04;94.29
70684;BME280;58263;48.146;11.440;2024-03-02T07:16:28;94662.81;;;6.07;94.37
70684;BME280;58263;48.146;11.440;2024-03-02T07:18:55;94668.50;;;6.11;94.04
70684;BME280;58263;48.146;11.440;2024-03-02T07:21:22;94664.38;;;5.97;94.89
70684;BME280;58263;48.146;11.440;2024-03-02T07:23:48;94666.72;;;6.05;95.49
70684;BME280;58263;48.146;11.440;2024-03-02T07:26:14;94667.22;;;6.14;93.88
70684;BME280;58263;48.146;11.440;2024-03-02T07:28:40;94671.84;;;6.18;93.76
70684;BME280;58263;48.146;11.440;2024-03-02T07:31:06;94677.75;;;6.08;95.43
70684;BME280;58263;48.146;11.440;2024-03-02T07:33:31;94672.81;;;5.93;98.27
70684;BME280;58263;48.146;11.440;2024-03-02T07:35:57;94678.06;;;6.00;98.35
70684;BME280;58263;48.146;11.440;2024-03-02T07:38:24;94677.06;;;6.13;98.45
70684;BME280;58263;48.146;11.440;2024-03-02T07:40:50;94673.00;;;6.11;99.18
70684;BME280;58263;48.146;11.440;2024-03-02T07:43:16;94681.25;;;6.21;99.59
70684;BME280;58263;48.146;11.440;2024-03-02T07:45:42;94675.22;;;6.37;98.68
70684;BME280;58263;48.146;11.440;2024-03-02T07:48:07;94672.56;;;6.37;98.24
70684;BME280;58263;48.146;11.440;2024-03-02T07:50:32;94670.59;;;6.45;98.00
70684;BME280;58263;48.146;11.440;2024-03-02T07:53:00;94682.41;;;6.49;96.70
70684;BME280;58263;48.146;11.440;2024-03-02T07:55:25;94677.53;;;6.69;95.60
70684;BME280;58263;48.146;11.440;2024-03-02T07:57:51;94687.28;;;6.75;96.28
70684;BME280;58263;48.146;11.440;2024-03-02T08:00:16;94683.13;;;6.91;95.49
70684;BME280;58263;48.146;11.440;2024-03-02T08:02:41;94685.75;;;7.03;93.82
70684;BME280;58263;48.146;11.440;2024-03-02T08:05:07;94681.31;;;7.21;92.44
70684;BME280;58263;48.146;11.440;2024-03-02T08:07:33;94678.72;;;7.67;90.80
70684;BME280;58263;48.146;11.440;2024-03-02T08:09:58;94677.06;;;7.77;90.69
70684;BME280;58263;48.146;11.440;2024-03-02T08:12:23;94684.31;;;8.11;89.32
70684;BME280;58263;48.146;11.440;2024-03-02T08:14:48;94689.38;;;8.41;87.86
70684;BME280;58263;48.146;11.440;2024-03-02T08:17:14;94689.53;;;8.52;86.47
70684;BME280;58263;48.146;11.440;2024-03-02T08:19:39;94677.34;;;8.95;84.74
70684;BME280;58263;48.146;11.440;2024-03-02T08:22:05;94683.09;;;9.26;83.50
70684;BME280;58263;48.146;11.440;2024-03-02T08:24:30;94682.34;;;9.08;82.34
70684;BME280;58263;48.146;11.440;2024-03-02T08:26:55;94690.63;;;9.29;81.60
70684;BME280;58263;48.146;11.440;2024-03-02T08:29:20;94687.47;;;10.09;78.44
70684;BME280;58263;48.146;11.440;2024-03-02T08:31:46;94695.09;;;9.68;77.85
70684;BME280;58263;48.146;11.440;2024-03-02T08:34:11;94690.22;;;9.87;76.11
70684;BME280;58263;48.146;11.440;2024-03-02T08:36:37;94689.75;;;10.49;75.10
70684;BME280;58263;48.146;11.440;2024-03-02T08:39:03;94685.00;;;10.57;74.45
70684;BME280;58263;48.146;11.440;2024-03-02T08:41:28;94687.91;;;10.93;73.38
70684;BME280;58263;48.146;11.440;2024-03-02T08:43:53;94684.38;;;11.35;71.69
70684;BME280;58263;48.146;11.440;2024-03-02T08:46:19;94679.66;;;11.63;70.19
70684;BME280;58263;48.146;11.440;2024-03-02T08:48:44;94677.94;;;11.36;72.75
70684;BME280;58263;48.146;11.440;2024-03-02T08:51:10;94687.00;;;11.93;70.96
70684;BME280;58263;48.146;11.440;2024-03-02T08:53:36;94687.63;;;12.26;69.25
70684;BME280;58263;48.146;11.440;2024-03-02T08:56:01;94679.84;;;12.35;68.59
70684;BME280;58263;48.146;11.440;2024-03-02T08:58:26;94684.16;;;12.41;68.06
70684;BME280;58263;48.146;11.440;2024-03-02T09:00:52;94680.66;;;12.61;67.46
70684;BME280;58263;48.146;11.440;2024-03-02T09:03:17;94677.69;;;12.63;66.59
70684;BME280;58263;48.146;11.440;2024-03-02T09:05:42;94675.81;;;12.63;65.65
70684;BME280;58263;48.146;11.440;2024-03-02T09:08:08;94682.28;;;12.78;65.46
70684;BME280;58263;48.146;11.440;2024-03-02T09:10:33;94683.34;;;12.82;65.11
70684;BME280;58263;48.146;11.440;2024-03-02T09:12:58;94691.66;;;12.96;64.86
70684;BME280;58263;48.146;11.440;2024-03-02T09:15:24;94687.84;;;13.12;63.63
70684;BME280;58263;48.146;11.440;2024-03-02T09:17:49;94687.56;;;13.40;63.34
70684;BME280;58263;48.146;11.440;2024-03-02T09:20:15;94684.19;;;13.68;63.12
70684;BME280;58263;48.146;11.440;2024-03-02T09:22:41;94683.81;;;13.96;62.84
70684;BME280;58263;48.146;11.440;2024-03-02T09:25:07;94682.16;;;14.00;60.92
70684;BME280;58263;48.146;11.440;2024-03-02T09:27:36;94679.88;;;14.23;60.45
70684;BME280;58263;48.146;11.440;2024-03-02T09:30:01;94678.88;;;14.08;60.97
70684;BME280;58263;48.146;11.440;2024-03-02T09:32:27;94667.25;;;14.52;61.26
70684;BME280;58263;48.146;11.440;2024-03-02T09:34:52;94674.84;;;14.06;60.53
70684;BME280;58263;48.146;11.440;2024-03-02T09:37:18;94662.06;;;14.96;59.41
70684;BME280;58263;48.146;11.440;2024-03-02T09:39:43;94659.78;;;15.08;58.04
70684;BME280;58263;48.146;11.440;2024-03-02T09:42:10;94661.28;;;15.19;57.96
70684;BME280;58263;48.146;11.440;2024-03-02T09:44:35;94662.19;;;15.10;57.54
70684;BME280;58263;48.146;11.440;2024-03-02T09:47:00;94657.34;;;15.31;57.60
70684;BME280;58263;48.146;11.440;2024-03-02T09:49:26;94655.47;;;15.07;58.70
70684;BME280;58263;48.146;11.440;2024-03-02T09:51:52;94650.22;;;15.40;57.85
70684;BME280;58263;48.146;11.440;2024-03-02T09:54:17;94660.25;;;15.40;58.39
70684;BME280;58263;48.146;11.440;2024-03-02T09:56:43;94644.84;;;15.40;58.51
70684;BME280;58263;48.146;11.440;2024-03-02T09:59:09;94649.31;;;15.50;58.42
70684;BME280;58263;48.146;11.440;2024-03-02T10:01:34;94649.69;;;15.62;57.16
70684;BME280;58263;48.146;11.440;2024-03-02T10:04:00;94653.84;;;15.06;57.58
70684;BME280;58263;48.146;11.440;2024-03-02T10:06:27;94648.25;;;15.70;58.15
70684;BME280;58263;48.146;11.440;2024-03-02T10:08:53;94645.06;;;15.68;56.85
70684;BME280;58263;48.146;11.440;2024-03-02T10:11:33;94641.94;;;15.80;55.81
70684;BME280;58263;48.146;11.440;2024-03-02T10:16:36;94644.66;;;15.75;56.19
70684;BME280;58263;48.146;11.440;2024-03-02T10:19:18;94650.88;;;16.37;57.58
70684;BME280;58263;48.146;11.440;2024-03-02T10:21:46;94642.16;;;16.93;57.11
70684;BME280;58263;48.146;11.440;2024-03-02T10:24:11;94643.28;;;17.47;54.12
70684;BME280;58263;48.146;11.440;2024-03-02T10:26:37;94634.75;;;17.96;52.62
70684;BME280;58263;48.146;11.440;2024-03-02T10:29:03;94637.22;;;18.42;51.43
70684;BME280;58263;48.146;11.440;2024-03-02T10:31:28;94629.97;;;18.83;49.80
70684;BME280;58263;48.146;11.440;2024-03-02T10:34:00;94638.00;;;19.11;48.13
70684;BME280;58263;48.146;11.440;2024-03-02T10:36:25;94634.41;;;19.02;46.04
70684;BME280;58263;48.146;11.440;2024-03-02T10:38:51;94627.66;;;19.71;46.31
70684;BME280;58263;48.146;11.440;2024-03-02T10:41:23;94613.66;;;20.91;43.31
70684;BME280;58263;48.146;11.440;2024-03-02T10:43:51;94618.00;;;22.21;40.27
70684;BME280;58263;48.146;11.440;2024-03-02T10:46:19;94616.22;;;23.01;38.57
70684;BME280;58263;48.146;11.440;2024-03-02T10:48:46;94595.75;;;24.18;37.07
70684;BME280;58263;48.146;11.440;2024-03-02T10:51:11;94610.53;;;25.27;34.87
70684;BME280;58263;48.146;11.440;2024-03-02T10:53:37;94603.81;;;26.04;33.43
70684;BME280;58263;48.146;11.440;2024-03-02T10:56:04;94597.44;;;26.55;31.07
70684;BME280;58263;48.146;11.440;2024-03-02T10:58:32;94591.47;;;26.53;30.08
70684;BME280;58263;48.146;11.440;2024-03-02T11:01:02;94584.84;;;27.86;28.46
70684;BME280;58263;48.146;11.440;2024-03-02T11:03:30;94588.97;;;28.26;27.46
70684;BME280;58263;48.146;11.440;2024-03-02T11:05:59;94573.69;;;28.93;26.51
70684;BME280;58263;48.146;11.440;2024-03-02T11:08:26;94575.47;;;29.54;25.82
70684;BME280;58263;48.146;11.440;2024-03-02T11:11:06;94571.78;;;30.46;24.52
70684;BME280;58263;48.146;11.440;2024-03-02T11:13:33;94562.53;;;31.16;24.04
70684;BME280;58263;48.146;11.440;2024-03-02T11:16:04;94559.47;;;33.03;22.01
70684;BME280;58263;48.146;11.440;2024-03-02T11:18:31;94555.00;;;33.77;20.79
70684;BME280;58263;48.146;11.440;2024-03-02T11:20:58;94552.41;;;34.00;20.75
70684;BME280;58263;48.146;11.440;2024-03-02T11:23:34;94544.19;;;34.66;19.93
70684;BME280;58263;48.146;11.440;2024-03-02T11:28:44;94540.56;;;34.69;19.63
70684;BME280;58263;48.146;11.440;2024-03-02T11:31:09;94531.78;;;34.70;19.72
70684;BME280;58263;48.146;11.440;2024-03-02T11:33:34;94533.50;;;33.84;20.71
70684;BME280;58263;48.146;11.440;2024-03-02T11:36:00;94518.16;;;34.07;19.50
70684;BME280;58263;48.146;11.440;2024-03-02T11:38:28;94513.09;;;34.36;20.01
70684;BME280;58263;48.146;11.440;2024-03-02T11:40:53;94513.72;;;33.19;20.35
70684;BME280;58263;48.146;11.440;2024-03-02T11:43:19;94515.78;;;32.05;21.52
70684;BME280;58263;48.146;11.440;2024-03-02T11:45:44;94511.00;;;30.93;22.94
70684;BME280;58263;48.146;11.440;2024-03-02T11:48:11;94505.88;;;30.95;22.84
70684;BME280;58263;48.146;11.440;2024-03-02T11:50:49;94507.22;;;28.41;24.28
70684;BME280;58263;48.146;11.440;2024-03-02T11:53:15;94509.00;;;29.39;24.28
70684;BME280;58263;48.146;11.440;2024-03-02T11:55:41;94488.34;;;29.22;24.42
70684;BME280;58263;48.146;11.440;2024-03-02T11:58:07;94492.75;;;30.63;23.10
70684;BME280;58263;48.146;11.440;2024-03-02T12:00:32;94494.78;;;30.99;22.96
70684;BME280;58263;48.146;11.440;2024-03-02T12:03:07;94488.66;;;29.65;23.84
70684;BME280;58263;48.146;11.440;2024-03-02T12:05:33;94473.88;;;29.92;23.65
70684;BME280;58263;48.146;11.440;2024-03-02T12:08:01;94463.19;;;31.25;22.84
70684;BME280;58263;48.146;11.440;2024-03-02T12:10:27;94470.88;;;33.13;21.08
70684;BME280;58263;48.146;11.440;2024-03-02T12:13:06;94464.28;;;32.92;20.93
70684;BME280;58263;48.146;11.440;2024-03-02T12:15:34;94462.88;;;33.67;20.71
70684;BME280;58263;48.146;11.440;2024-03-02T12:18:01;94463.91;;;33.43;19.86
70684;BME280;58263;48.146;11.440;2024-03-02T12:20:28;94463.34;;;34.69;20.15
70684;BME280;58263;48.146;11.440;2024-03-02T12:22:55;94453.53;;;35.16;19.34
70684;BME280;58263;48.146;11.440;2024-03-02T12:25:21;94453.09;;;34.63;19.74
70684;BME280;58263;48.146;11.440;2024-03-02T12:27:49;94439.66;;;34.85;19.01
70684;BME280;58263;48.146;11.440;2024-03-02T12:30:16;94439.69;;;36.03;18.29
70684;BME280;58263;48.146;11.440;2024-03-02T12:32:42;94433.31;;;35.59;18.46
70684;BME280;58263;48.146;11.440;2024-03-02T12:35:07;94425.09;;;33.32;19.57
70684;BME280;58263;48.146;11.440;2024-03-02T12:37:33;94428.16;;;34.83;18.45
70684;BME280;58263;48.146;11.440;2024-03-02T12:39:59;94416.25;;;35.33;17.93
70684;BME280;58263;48.146;11.440;2024-03-02T12:42:24;94411.00;;;35.59;18.10
70684;BME280;58263;48.146;11.440;2024-03-02T12:44:53;94402.28;;;37.11;17.72
70684;BME280;58263;48.146;11.440;2024-03-02T12:47:21;94406.06;;;32.78;20.70
70684;BME280;58263;48.146;11.440;2024-03-02T12:49:46;94404.94;;;35.17;19.02
70684;BME280;58263;48.146;11.440;2024-03-02T12:52:13;94402.56;;;32.59;20.50
70684;BME280;58263;48.146;11.440;2024-03-02T12:54:38;94400.22;;;32.58;21.16
70684;BME280;58263;48.146;11.440;2024-03-02T12:57:04;94394.31;;;31.06;23.45